sensor_id;sensor_type;location;lat;lon;timestamp;pressure;altitude;pressure_sealevel;temperature;humidity
58223;BME280;44020;50.890;15.796;2023-05-10T00:00:52;97407.73;;;12.28;46.38
58223;BME280;44020;50.890;15.796;2023-05-10T00:03:19;97403.39;;;12.27;46.41
58223;BME280;44020;50.890;15.796;2023-05-10T00:05:47;97400.56;;;12.25;46.76
58223;BME280;44020;50.890;15.796;2023-05-10T00:08:15;97395.95;;;12.23;46.56
58223;BME280;44020;50.890;15.796;2023-05-10T00:10:42;97396.58;;;12.21;46.53
58223;BME280;44020;50.890;15.796;2023-05-10T00:13:10;97399.50;;;12.20;46.65
58223;BME280;44020;50.890;15.796;2023-05-10T00:15:37;97389.70;;;12.18;46.73
58223;BME280;44020;50.890;15.796;2023-05-10T00:18:04;97384.90;;;12.16;46.90
58223;BME280;44020;50.890;15.796;2023-05-10T00:20:32;97379.64;;;12.13;46.78
58223;BME280;44020;50.890;15.796;2023-05-10T00:22:59;97380.48;;;12.12;46.98
58223;BME280;44020;50.890;15.796;2023-05-10T00:25:27;97379.52;;;12.10;47.16
58223;BME280;44020;50.890;15.796;2023-05-10T00:27:55;97378.48;;;12.07;47.05
58223;BME280;44020;50.890;15.796;2023-05-10T00:30:24;97381.97;;;12.04;47.31
58223;BME280;44020;50.890;15.796;2023-05-10T00:32:52;97387.35;;;12.04;47.31
58223;BME280;44020;50.890;15.796;2023-05-10T00:35:19;97379.29;;;12.02;47.31
58223;BME280;44020;50.890;15.796;2023-05-10T00:37:47;97371.92;;;12.01;47.26
58223;BME280;44020;50.890;15.796;2023-05-10T00:40:15;97364.52;;;12.00;47.35
58223;BME280;44020;50.890;15.796;2023-05-10T00:42:42;97372.83;;;11.98;47.67
58223;BME280;44020;50.890;15.796;2023-05-10T00:45:10;97368.06;;;11.98;47.59
58223;BME280;44020;50.890;15.796;2023-05-10T00:47:39;97370.33;;;11.96;47.83
58223;BME280;44020;50.890;15.796;2023-05-10T00:50:08;97370.55;;;11.94;47.69
58223;BME280;44020;50.890;15.796;2023-05-10T00:52:36;97367.45;;;11.92;47.76
58223;BME280;44020;50.890;15.796;2023-05-10T00:55:05;97369.83;;;11.89;48.03
58223;BME280;44020;50.890;15.796;2023-05-10T00:57:33;97368.86;;;11.88;48.11
58223;BME280;44020;50.890;15.796;2023-05-10T01:00:02;97372.46;;;11.87;48.05
58223;BME280;44020;50.890;15.796;2023-05-10T01:02:30;97365.60;;;11.86;48.52
58223;BME280;44020;50.890;15.796;2023-05-10T01:04:58;97368.16;;;11.85;48.26
58223;BME280;44020;50.890;15.796;2023-05-10T01:07:26;97365.04;;;11.84;48.39
58223;BME280;44020;50.890;15.796;2023-05-10T01:09:53;97358.31;;;11.84;48.38
58223;BME280;44020;50.890;15.796;2023-05-10T01:12:21;97354.77;;;11.83;48.39
58223;BME280;44020;50.890;15.796;2023-05-10T01:14:49;97350.20;;;11.80;48.47
58223;BME280;44020;50.890;15.796;2023-05-10T01:17:16;97347.90;;;11.80;48.39
58223;BME280;44020;50.890;15.796;2023-05-10T01:19:44;97348.27;;;11.80;48.67
58223;BME280;44020;50.890;15.796;2023-05-10T01:22:35;97341.57;;;11.79;48.63
58223;BME280;44020;50.890;15.796;2023-05-10T01:32:01;97341.06;;;11.73;49.22
58223;BME280;44020;50.890;15.796;2023-05-10T01:34:13;97338.72;;;11.69;49.38
58223;BME280;44020;50.890;15.796;2023-05-10T01:36:59;97344.45;;;11.68;49.23
58223;BME280;44020;50.890;15.796;2023-05-10T01:39:40;97339.18;;;11.67;49.19
58223;BME280;44020;50.890;15.796;2023-05-10T01:42:17;97338.41;;;11.65;49.48
58223;BME280;44020;50.890;15.796;2023-05-10T01:45:14;97339.64;;;11.66;49.23
58223;BME280;44020;50.890;15.796;2023-05-10T01:48:05;97340.15;;;11.61;49.68
58223;BME280;44020;50.890;15.796;2023-05-10T01:50:37;97338.05;;;11.61;49.61
58223;BME280;44020;50.890;15.796;2023-05-10T01:53:08;97342.27;;;11.62;49.53
58223;BME280;44020;50.890;15.796;2023-05-10T01:55:47;97339.79;;;11.61;49.55
58223;BME280;44020;50.890;15.796;2023-05-10T01:58:27;97336.86;;;11.60;49.79
58223;BME280;44020;50.890;15.796;2023-05-10T02:00:58;97341.47;;;11.58;50.22
58223;BME280;44020;50.890;15.796;2023-05-10T02:03:28;97337.36;;;11.57;49.92
58223;BME280;44020;50.890;15.796;2023-05-10T02:05:57;97333.02;;;11.55;49.76
58223;BME280;44020;50.890;15.796;2023-05-10T02:08:26;97330.45;;;11.54;50.10
58223;BME280;44020;50.890;15.796;2023-05-10T02:10:58;97330.46;;;11.52;50.12
58223;BME280;44020;50.890;15.796;2023-05-10T02:13:26;97324.86;;;11.51;49.82
58223;BME280;44020;50.890;15.796;2023-05-10T02:15:56;97326.90;;;11.50;50.06
58223;BME280;44020;50.890;15.796;2023-05-10T02:18:25;97328.62;;;11.48;50.18
58223;BME280;44020;50.890;15.796;2023-05-10T02:20:55;97326.91;;;11.45;50.48
58223;BME280;44020;50.890;15.796;2023-05-10T02:23:24;97322.88;;;11.42;50.54
58223;BME280;44020;50.890;15.796;2023-05-10T02:25:53;97325.28;;;11.43;50.36
58223;BME280;44020;50.890;15.796;2023-05-10T02:28:23;97322.19;;;11.44;50.34
58223;BME280;44020;50.890;15.796;2023-05-10T02:30:52;97327.73;;;11.43;50.35
58223;BME280;44020;50.890;15.796;2023-05-10T02:33:21;97322.18;;;11.42;50.69
58223;BME280;44020;50.890;15.796;2023-05-10T02:35:50;97321.65;;;11.39;50.62
58223;BME280;44020;50.890;15.796;2023-05-10T02:38:20;97318.85;;;11.39;50.83
58223;BME280;44020;50.890;15.796;2023-05-10T02:40:49;97315.77;;;11.37;50.81
58223;BME280;44020;50.890;15.796;2023-05-10T02:43:18;97317.75;;;11.37;50.94
58223;BME280;44020;50.890;15.796;2023-05-10T02:45:47;97323.40;;;11.35;51.05
58223;BME280;44020;50.890;15.796;2023-05-10T02:48:16;97321.28;;;11.35;51.28
58223;BME280;44020;50.890;15.796;2023-05-10T02:50:45;97317.02;;;11.35;51.01
58223;BME280;44020;50.890;15.796;2023-05-10T02:53:20;97317.27;;;11.34;51.22
58223;BME280;44020;50.890;15.796;2023-05-10T02:55:51;97318.79;;;11.31;51.41
58223;BME280;44020;50.890;15.796;2023-05-10T02:58:19;97317.65;;;11.29;51.39
58223;BME280;44020;50.890;15.796;2023-05-10T03:00:47;97315.48;;;11.28;51.64
58223;BME280;44020;50.890;15.796;2023-05-10T03:03:15;97321.21;;;11.27;52.06
58223;BME280;44020;50.890;15.796;2023-05-10T03:05:42;97323.41;;;11.27;51.72
58223;BME280;44020;50.890;15.796;2023-05-10T03:08:09;97327.42;;;11.27;51.60
58223;BME280;44020;50.890;15.796;2023-05-10T03:10:43;97329.73;;;11.25;52.10
58223;BME280;44020;50.890;15.796;2023-05-10T03:13:29;97327.92;;;11.23;51.84
58223;BME280;44020;50.890;15.796;2023-05-10T03:16:08;97329.92;;;11.22;51.81
58223;BME280;44020;50.890;15.796;2023-05-10T03:18:43;97322.89;;;11.19;52.04
58223;BME280;44020;50.890;15.796;2023-05-10T03:21:13;97326.92;;;11.18;52.34
58223;BME280;44020;50.890;15.796;2023-05-10T03:23:59;97326.54;;;11.16;52.46
58223;BME280;44020;50.890;15.796;2023-05-10T03:26:32;97328.48;;;11.13;52.66
58223;BME280;44020;50.890;15.796;2023-05-10T03:29:00;97323.16;;;11.11;52.74
58223;BME280;44020;50.890;15.796;2023-05-10T03:31:28;97325.44;;;11.10;52.62
58223;BME280;44020;50.890;15.796;2023-05-10T03:33:55;97322.16;;;11.08;52.56
58223;BME280;44020;50.890;15.796;2023-05-10T03:36:23;97321.73;;;11.09;52.75
58223;BME280;44020;50.890;15.796;2023-05-10T03:38:50;97324.80;;;11.09;53.07
58223;BME280;44020;50.890;15.796;2023-05-10T03:41:18;97322.14;;;11.06;53.24
58223;BME280;44020;50.890;15.796;2023-05-10T03:43:45;97331.23;;;11.03;53.52
58223;BME280;44020;50.890;15.796;2023-05-10T03:46:13;97326.81;;;11.03;53.63
58223;BME280;44020;50.890;15.796;2023-05-10T03:48:40;97326.27;;;11.03;53.27
58223;BME280;44020;50.890;15.796;2023-05-10T03:51:08;97331.03;;;11.04;53.77
58223;BME280;44020;50.890;15.796;2023-05-10T03:53:36;97330.41;;;11.02;54.13
58223;BME280;44020;50.890;15.796;2023-05-10T03:56:04;97334.72;;;11.02;54.01
58223;BME280;44020;50.890;15.796;2023-05-10T03:58:31;97334.23;;;11.04;54.11
58223;BME280;44020;50.890;15.796;2023-05-10T04:00:59;97341.39;;;11.06;54.07
58223;BME280;44020;50.890;15.796;2023-05-10T04:03:27;97337.55;;;11.07;54.06
58223;BME280;44020;50.890;15.796;2023-05-10T04:06:01;97334.52;;;11.07;53.93
58223;BME280;44020;50.890;15.796;2023-05-10T04:08:29;97334.66;;;11.08;54.11
58223;BME280;44020;50.890;15.796;2023-05-10T04:11:10;97336.93;;;11.11;54.06
58223;BME280;44020;50.890;15.796;2023-05-10T04:13:38;97333.15;;;11.11;54.11
58223;BME280;44020;50.890;15.796;2023-05-10T04:16:05;97333.75;;;11.13;54.31
58223;BME280;44020;50.890;15.796;2023-05-10T04:18:33;97329.91;;;11.14;54.40
58223;BME280;44020;50.890;15.796;2023-05-10T04:21:01;97333.91;;;11.15;54.64
58223;BME280;44020;50.890;15.796;2023-05-10T04:23:29;97335.73;;;11.16;54.65
58223;BME280;44020;50.890;15.796;2023-05-10T04:26:00;97337.13;;;11.19;54.74
58223;BME280;44020;50.890;15.796;2023-05-10T04:28:28;97333.13;;;11.22;54.59
58223;BME280;44020;50.890;15.796;2023-05-10T04:31:06;97332.11;;;11.26;54.78
58223;BME280;44020;50.890;15.796;2023-05-10T04:33:34;97330.40;;;11.30;55.01
58223;BME280;44020;50.890;15.796;2023-05-10T04:36:03;97330.17;;;11.33;55.22
58223;BME280;44020;50.890;15.796;2023-05-10T04:38:31;97341.71;;;11.35;55.19
58223;BME280;44020;50.890;15.796;2023-05-10T04:41:09;97330.31;;;11.38;54.78
58223;BME280;44020;50.890;15.796;2023-05-10T04:43:38;97338.85;;;11.42;54.96
58223;BME280;44020;50.890;15.796;2023-05-10T04:46:05;97336.77;;;11.46;55.26
58223;BME280;44020;50.890;15.796;2023-05-10T04:48:34;97331.34;;;11.61;55.06
58223;BME280;44020;50.890;15.796;2023-05-10T04:51:01;97330.20;;;11.81;54.92
58223;BME280;44020;50.890;15.796;2023-05-10T04:53:31;97326.71;;;11.98;54.66
58223;BME280;44020;50.890;15.796;2023-05-10T04:55:58;97328.66;;;12.24;54.94
58223;BME280;44020;50.890;15.796;2023-05-10T04:58:26;97327.15;;;12.38;54.37
58223;BME280;44020;50.890;15.796;2023-05-10T05:00:53;97325.88;;;12.41;54.23
58223;BME280;44020;50.890;15.796;2023-05-10T05:03:21;97322.92;;;12.38;54.40
58223;BME280;44020;50.890;15.796;2023-05-10T05:05:49;97320.92;;;12.34;54.40
58223;BME280;44020;50.890;15.796;2023-05-10T05:08:17;97324.94;;;12.28;54.58
58223;BME280;44020;50.890;15.796;2023-05-10T05:10:44;97318.70;;;12.26;54.86
58223;BME280;44020;50.890;15.796;2023-05-10T05:13:12;97318.63;;;12.27;54.89
58223;BME280;44020;50.890;15.796;2023-05-10T05:15:39;97317.80;;;12.28;54.67
58223;BME280;44020;50.890;15.796;2023-05-10T05:18:07;97320.61;;;12.29;54.95
58223;BME280;44020;50.890;15.796;2023-05-10T05:20:35;97320.08;;;12.29;54.79
58223;BME280;44020;50.890;15.796;2023-05-10T05:23:02;97308.17;;;12.31;55.18
58223;BME280;44020;50.890;15.796;2023-05-10T05:25:29;97314.58;;;12.33;55.36
58223;BME280;44020;50.890;15.796;2023-05-10T05:27:57;97308.79;;;12.36;55.56
58223;BME280;44020;50.890;15.796;2023-05-10T05:30:24;97310.55;;;12.39;55.53
58223;BME280;44020;50.890;15.796;2023-05-10T05:32:51;97320.58;;;12.42;55.79
58223;BME280;44020;50.890;15.796;2023-05-10T05:35:19;97312.08;;;12.46;55.64
58223;BME280;44020;50.890;15.796;2023-05-10T05:37:46;97315.91;;;12.49;55.64
58223;BME280;44020;50.890;15.796;2023-05-10T05:40:14;97314.35;;;12.55;56.01
58223;BME280;44020;50.890;15.796;2023-05-10T05:42:42;97311.47;;;12.59;56.02
58223;BME280;44020;50.890;15.796;2023-05-10T05:45:10;97307.83;;;12.62;56.01
58223;BME280;44020;50.890;15.796;2023-05-10T05:47:39;97305.66;;;12.67;55.84
58223;BME280;44020;50.890;15.796;2023-05-10T05:50:07;97302.20;;;12.70;55.76
58223;BME280;44020;50.890;15.796;2023-05-10T05:52:36;97298.88;;;12.74;55.95
58223;BME280;44020;50.890;15.796;2023-05-10T05:55:04;97299.65;;;12.77;55.99
58223;BME280;44020;50.890;15.796;2023-05-10T05:57:31;97296.54;;;12.80;55.82
58223;BME280;44020;50.890;15.796;2023-05-10T05:59:59;97298.27;;;12.82;56.22
58223;BME280;44020;50.890;15.796;2023-05-10T06:02:26;97298.88;;;12.85;56.14
58223;BME280;44020;50.890;15.796;2023-05-10T06:04:53;97301.35;;;12.88;56.22
58223;BME280;44020;50.890;15.796;2023-05-10T06:07:21;97306.66;;;12.93;56.67
58223;BME280;44020;50.890;15.796;2023-05-10T06:09:48;97295.29;;;12.99;56.44
58223;BME280;44020;50.890;15.796;2023-05-10T06:12:16;97297.09;;;13.02;56.39
58223;BME280;44020;50.890;15.796;2023-05-10T06:14:44;97294.53;;;13.05;56.22
58223;BME280;44020;50.890;15.796;2023-05-10T06:17:12;97298.36;;;13.08;56.36
58223;BME280;44020;50.890;15.796;2023-05-10T06:19:41;97298.73;;;13.12;56.62
58223;BME280;44020;50.890;15.796;2023-05-10T06:22:09;97296.81;;;13.16;56.30
58223;BME280;44020;50.890;15.796;2023-05-10T06:24:37;97296.94;;;13.21;56.36
58223;BME280;44020;50.890;15.796;2023-05-10T06:27:06;97297.33;;;13.26;56.24
58223;BME280;44020;50.890;15.796;2023-05-10T06:29:34;97301.44;;;13.31;56.11
58223;BME280;44020;50.890;15.796;2023-05-10T06:32:05;97298.60;;;13.32;55.83
58223;BME280;44020;50.890;15.796;2023-05-10T06:34:35;97302.47;;;13.35;55.71
58223;BME280;44020;50.890;15.796;2023-05-10T06:37:08;97305.06;;;13.38;55.71
58223;BME280;44020;50.890;15.796;2023-05-10T06:39:36;97300.38;;;13.43;55.70
58223;BME280;44020;50.890;15.796;2023-05-10T06:42:04;97298.88;;;13.47;55.67
58223;BME280;44020;50.890;15.796;2023-05-10T06:44:33;97297.71;;;13.52;55.46
58223;BME280;44020;50.890;15.796;2023-05-10T06:47:01;97297.78;;;13.58;55.35
58223;BME280;44020;50.890;15.796;2023-05-10T06:49:29;97291.14;;;13.63;55.02
58223;BME280;44020;50.890;15.796;2023-05-10T06:51:57;97290.96;;;13.66;55.21
58223;BME280;44020;50.890;15.796;2023-05-10T06:54:26;97291.66;;;13.70;54.95
58223;BME280;44020;50.890;15.796;2023-05-10T06:56:57;97297.80;;;13.76;54.95
58223;BME280;44020;50.890;15.796;2023-05-10T06:59:25;97295.41;;;13.80;54.64
58223;BME280;44020;50.890;15.796;2023-05-10T07:01:53;97293.98;;;13.84;54.51
58223;BME280;44020;50.890;15.796;2023-05-10T07:04:21;97291.61;;;13.89;54.56
58223;BME280;44020;50.890;15.796;2023-05-10T07:06:49;97288.16;;;13.93;54.64
58223;BME280;44020;50.890;15.796;2023-05-10T07:09:16;97287.83;;;14.01;54.50
58223;BME280;44020;50.890;15.796;2023-05-10T07:11:45;97287.44;;;14.07;54.05
58223;BME280;44020;50.890;15.796;2023-05-10T07:14:13;97282.64;;;14.13;54.17
58223;BME280;44020;50.890;15.796;2023-05-10T07:16:42;97284.57;;;14.17;53.72
58223;BME280;44020;50.890;15.796;2023-05-10T07:19:10;97282.67;;;14.21;53.57
58223;BME280;44020;50.890;15.796;2023-05-10T07:21:40;97284.88;;;14.22;53.30
58223;BME280;44020;50.890;15.796;2023-05-10T07:24:10;97286.32;;;14.25;52.89
58223;BME280;44020;50.890;15.796;2023-05-10T07:26:38;97279.11;;;14.28;52.81
58223;BME280;44020;50.890;15.796;2023-05-10T07:29:09;97274.17;;;14.31;52.98
58223;BME280;44020;50.890;15.796;2023-05-10T07:31:38;97280.55;;;14.38;53.02
58223;BME280;44020;50.890;15.796;2023-05-10T07:34:06;97281.20;;;14.46;53.13
58223;BME280;44020;50.890;15.796;2023-05-10T07:36:34;97282.03;;;14.52;53.02
58223;BME280;44020;50.890;15.796;2023-05-10T07:39:01;97281.80;;;14.59;52.74
58223;BME280;44020;50.890;15.796;2023-05-10T07:41:29;97281.90;;;14.66;52.40
58223;BME280;44020;50.890;15.796;2023-05-10T07:43:57;97277.36;;;14.70;51.35
58223;BME280;44020;50.890;15.796;2023-05-10T07:46:24;97287.30;;;14.73;51.07
58223;BME280;44020;50.890;15.796;2023-05-10T07:48:51;97288.97;;;14.78;51.39
58223;BME280;44020;50.890;15.796;2023-05-10T07:51:19;97284.46;;;14.86;51.58
58223;BME280;44020;50.890;15.796;2023-05-10T07:53:46;97289.41;;;14.92;50.82
58223;BME280;44020;50.890;15.796;2023-05-10T07:56:27;97289.38;;;14.96;50.96
58223;BME280;44020;50.890;15.796;2023-05-10T07:58:56;97288.09;;;15.03;50.38
58223;BME280;44020;50.890;15.796;2023-05-10T08:01:23;97289.05;;;15.07;50.21
58223;BME280;44020;50.890;15.796;2023-05-10T08:03:51;97292.58;;;15.12;49.97
58223;BME280;44020;50.890;15.796;2023-05-10T08:06:20;97289.96;;;15.17;49.76
58223;BME280;44020;50.890;15.796;2023-05-10T08:08:48;97284.77;;;15.22;49.47
58223;BME280;44020;50.890;15.796;2023-05-10T08:11:20;97294.07;;;15.28;49.63
58223;BME280;44020;50.890;15.796;2023-05-10T08:13:49;97298.60;;;15.35;49.96
58223;BME280;44020;50.890;15.796;2023-05-10T08:16:17;97296.58;;;15.41;50.02
58223;BME280;44020;50.890;15.796;2023-05-10T08:18:44;97294.80;;;15.46;49.77
58223;BME280;44020;50.890;15.796;2023-05-10T08:21:14;97287.77;;;15.50;49.47
58223;BME280;44020;50.890;15.796;2023-05-10T08:23:41;97295.36;;;15.55;49.32
58223;BME280;44020;50.890;15.796;2023-05-10T08:26:10;97292.85;;;15.59;49.56
58223;BME280;44020;50.890;15.796;2023-05-10T08:28:37;97291.35;;;15.66;49.67
58223;BME280;44020;50.890;15.796;2023-05-10T08:31:05;97293.64;;;15.72;49.22
58223;BME280;44020;50.890;15.796;2023-05-10T08:33:33;97295.90;;;15.76;49.54
58223;BME280;44020;50.890;15.796;2023-05-10T08:36:00;97296.10;;;15.81;49.60
58223;BME280;44020;50.890;15.796;2023-05-10T08:38:27;97303.98;;;15.87;49.00
58223;BME280;44020;50.890;15.796;2023-05-10T08:40:55;97300.83;;;15.90;48.76
58223;BME280;44020;50.890;15.796;2023-05-10T08:43:27;97299.56;;;15.93;48.67
58223;BME280;44020;50.890;15.796;2023-05-10T08:46:00;97304.27;;;15.98;48.11
58223;BME280;44020;50.890;15.796;2023-05-10T08:48:29;97303.59;;;16.03;48.44
58223;BME280;44020;50.890;15.796;2023-05-10T08:50:59;97302.52;;;16.09;48.52
58223;BME280;44020;50.890;15.796;2023-05-10T08:53:28;97308.59;;;16.16;48.42
58223;BME280;44020;50.890;15.796;2023-05-10T08:55:57;97309.95;;;16.20;48.31
58223;BME280;44020;50.890;15.796;2023-05-10T08:58:25;97314.02;;;16.25;48.07
58223;BME280;44020;50.890;15.796;2023-05-10T09:00:53;97307.30;;;16.28;47.69
58223;BME280;44020;50.890;15.796;2023-05-10T09:03:20;97307.29;;;16.31;48.15
58223;BME280;44020;50.890;15.796;2023-05-10T09:05:49;97305.96;;;16.35;48.37
58223;BME280;44020;50.890;15.796;2023-05-10T09:08:17;97313.77;;;16.40;48.22
58223;BME280;44020;50.890;15.796;2023-05-10T09:10:44;97311.91;;;16.42;48.04
58223;BME280;44020;50.890;15.796;2023-05-10T09:13:14;97313.59;;;16.47;47.76
58223;BME280;44020;50.890;15.796;2023-05-10T09:15:44;97311.33;;;16.52;47.90
58223;BME280;44020;50.890;15.796;2023-05-10T09:18:12;97308.59;;;16.56;48.17
58223;BME280;44020;50.890;15.796;2023-05-10T09:20:40;97308.75;;;16.63;48.23
58223;BME280;44020;50.890;15.796;2023-05-10T09:23:07;97310.55;;;16.70;48.38
58223;BME280;44020;50.890;15.796;2023-05-10T09:25:35;97306.50;;;16.76;48.16
58223;BME280;44020;50.890;15.796;2023-05-10T09:28:06;97308.13;;;16.82;48.29
58223;BME280;44020;50.890;15.796;2023-05-10T09:30:34;97310.54;;;16.90;48.37
58223;BME280;44020;50.890;15.796;2023-05-10T09:33:01;97311.30;;;16.94;47.93
58223;BME280;44020;50.890;15.796;2023-05-10T09:35:30;97311.08;;;17.00;48.42
58223;BME280;44020;50.890;15.796;2023-05-10T09:38:00;97311.31;;;17.10;48.29
58223;BME280;44020;50.890;15.796;2023-05-10T09:40:29;97312.01;;;17.14;47.20
58223;BME280;44020;50.890;15.796;2023-05-10T09:42:58;97315.33;;;17.17;46.98
58223;BME280;44020;50.890;15.796;2023-05-10T09:45:28;97309.77;;;17.18;47.31
58223;BME280;44020;50.890;15.796;2023-05-10T09:47:56;97304.69;;;17.24;47.65
58223;BME280;44020;50.890;15.796;2023-05-10T09:50:24;97304.33;;;17.32;47.88
58223;BME280;44020;50.890;15.796;2023-05-10T09:52:54;97306.36;;;17.39;47.05
58223;BME280;44020;50.890;15.796;2023-05-10T09:55:23;97314.83;;;17.44;46.79
58223;BME280;44020;50.890;15.796;2023-05-10T09:58:01;97312.16;;;17.48;46.69
58223;BME280;44020;50.890;15.796;2023-05-10T10:00:35;97309.44;;;17.56;46.31
58223;BME280;44020;50.890;15.796;2023-05-10T10:03:03;97310.27;;;17.63;46.38
58223;BME280;44020;50.890;15.796;2023-05-10T10:05:34;97304.00;;;17.70;46.30
58223;BME280;44020;50.890;15.796;2023-05-10T10:08:05;97296.77;;;17.79;46.67
58223;BME280;44020;50.890;15.796;2023-05-10T10:10:33;97295.79;;;17.90;46.60
58223;BME280;44020;50.890;15.796;2023-05-10T10:13:01;97298.64;;;17.99;46.03
58223;BME280;44020;50.890;15.796;2023-05-10T10:15:28;97298.08;;;18.04;45.26
58223;BME280;44020;50.890;15.796;2023-05-10T10:17:56;97296.60;;;18.06;44.31
58223;BME280;44020;50.890;15.796;2023-05-10T10:20:23;97293.55;;;18.13;45.40
58223;BME280;44020;50.890;15.796;2023-05-10T10:22:51;97292.05;;;18.20;44.78
58223;BME280;44020;50.890;15.796;2023-05-10T10:25:20;97294.85;;;18.27;45.13
58223;BME280;44020;50.890;15.796;2023-05-10T10:30:42;97289.91;;;18.41;44.76
58223;BME280;44020;50.890;15.796;2023-05-10T10:33:30;97294.05;;;18.47;44.98
58223;BME280;44020;50.890;15.796;2023-05-10T10:36:02;97299.16;;;18.54;44.68
58223;BME280;44020;50.890;15.796;2023-05-10T10:39:00;97293.63;;;18.57;44.25
58223;BME280;44020;50.890;15.796;2023-05-10T10:41:36;97302.80;;;18.60;43.79
58223;BME280;44020;50.890;15.796;2023-05-10T10:49:52;97294.21;;;18.76;44.22
58223;BME280;44020;50.890;15.796;2023-05-10T10:52:23;97296.86;;;18.83;43.51
58223;BME280;44020;50.890;15.796;2023-05-10T10:55:20;97292.23;;;18.87;43.66
58223;BME280;44020;50.890;15.796;2023-05-10T10:57:48;97290.06;;;18.94;43.75
58223;BME280;44020;50.890;15.796;2023-05-10T11:00:27;97289.81;;;19.01;43.91
58223;BME280;44020;50.890;15.796;2023-05-10T11:11:05;97298.50;;;19.33;43.16
58223;BME280;44020;50.890;15.796;2023-05-10T11:13:44;97292.46;;;19.35;42.35
58223;BME280;44020;50.890;15.796;2023-05-10T11:16:14;97293.02;;;19.35;41.60
58223;BME280;44020;50.890;15.796;2023-05-10T11:19:02;97298.71;;;19.41;42.47
58223;BME280;44020;50.890;15.796;2023-05-10T11:21:31;97292.23;;;19.47;42.54
58223;BME280;44020;50.890;15.796;2023-05-10T11:24:01;97291.85;;;19.52;42.49
58223;BME280;44020;50.890;15.796;2023-05-10T11:26:35;97296.80;;;19.54;41.81
58223;BME280;44020;50.890;15.796;2023-05-10T11:29:02;97295.98;;;19.58;42.14
58223;BME280;44020;50.890;15.796;2023-05-10T11:31:31;97293.70;;;19.63;42.34
58223;BME280;44020;50.890;15.796;2023-05-10T11:34:00;97296.54;;;19.71;42.49
58223;BME280;44020;50.890;15.796;2023-05-10T11:36:34;97297.45;;;19.75;41.59
58223;BME280;44020;50.890;15.796;2023-05-10T11:39:03;97299.36;;;19.81;41.46
58223;BME280;44020;50.890;15.796;2023-05-10T11:41:31;97297.84;;;19.88;41.64
58223;BME280;44020;50.890;15.796;2023-05-10T11:43:58;97305.44;;;19.91;40.75
58223;BME280;44020;50.890;15.796;2023-05-10T11:46:27;97300.13;;;19.92;40.60
58223;BME280;44020;50.890;15.796;2023-05-10T11:49:00;97307.72;;;19.99;41.54
58223;BME280;44020;50.890;15.796;2023-05-10T11:51:28;97308.38;;;20.00;41.09
58223;BME280;44020;50.890;15.796;2023-05-10T11:53:56;97310.38;;;20.02;40.71
58223;BME280;44020;50.890;15.796;2023-05-10T11:56:24;97315.92;;;20.03;40.81
58223;BME280;44020;50.890;15.796;2023-05-10T11:58:55;97313.92;;;20.08;40.93
58223;BME280;44020;50.890;15.796;2023-05-10T12:01:24;97311.00;;;20.18;41.00
58223;BME280;44020;50.890;15.796;2023-05-10T12:03:54;97310.05;;;20.31;41.52
58223;BME280;44020;50.890;15.796;2023-05-10T12:06:21;97307.80;;;20.42;41.40
58223;BME280;44020;50.890;15.796;2023-05-10T12:08:49;97304.40;;;20.50;41.01
58223;BME280;44020;50.890;15.796;2023-05-10T12:11:24;97310.18;;;20.51;40.43
58223;BME280;44020;50.890;15.796;2023-05-10T12:13:53;97307.21;;;20.46;40.19
58223;BME280;44020;50.890;15.796;2023-05-10T12:16:22;97309.67;;;20.40;40.16
58223;BME280;44020;50.890;15.796;2023-05-10T12:18:51;97317.71;;;20.42;39.92
58223;BME280;44020;50.890;15.796;2023-05-10T12:21:20;97320.31;;;20.38;40.46
58223;BME280;44020;50.890;15.796;2023-05-10T12:23:51;97318.71;;;20.45;40.81
58223;BME280;44020;50.890;15.796;2023-05-10T12:26:23;97325.20;;;20.54;40.72
58223;BME280;44020;50.890;15.796;2023-05-10T12:28:53;97323.38;;;20.63;40.43
58223;BME280;44020;50.890;15.796;2023-05-10T12:31:20;97318.77;;;20.69;40.54
58223;BME280;44020;50.890;15.796;2023-05-10T12:33:47;97317.94;;;20.76;40.67
58223;BME280;44020;50.890;15.796;2023-05-10T12:36:16;97317.30;;;20.87;40.37
58223;BME280;44020;50.890;15.796;2023-05-10T12:38:45;97323.14;;;20.93;39.76
58223;BME280;44020;50.890;15.796;2023-05-10T12:41:17;97326.95;;;20.87;38.77
58223;BME280;44020;50.890;15.796;2023-05-10T12:43:44;97325.25;;;20.84;39.63
58223;BME280;44020;50.890;15.796;2023-05-10T12:46:16;97323.75;;;20.92;39.56
58223;BME280;44020;50.890;15.796;2023-05-10T12:48:45;97322.31;;;21.00;39.34
58223;BME280;44020;50.890;15.796;2023-05-10T12:51:13;97321.40;;;21.06;39.18
58223;BME280;44020;50.890;15.796;2023-05-10T12:53:43;97323.09;;;21.15;39.33
58223;BME280;44020;50.890;15.796;2023-05-10T12:56:13;97327.84;;;21.23;39.46
58223;BME280;44020;50.890;15.796;2023-05-10T12:58:41;97327.42;;;21.27;38.93
58223;BME280;44020;50.890;15.796;2023-05-10T13:01:08;97333.17;;;21.19;38.69
58223;BME280;44020;50.890;15.796;2023-05-10T13:03:35;97336.74;;;21.21;38.39
58223;BME280;44020;50.890;15.796;2023-05-10T13:06:03;97337.94;;;21.20;38.21
58223;BME280;44020;50.890;15.796;2023-05-10T13:08:31;97333.39;;;21.24;38.10
58223;BME280;44020;50.890;15.796;2023-05-10T13:11:01;97329.40;;;21.16;38.26
58223;BME280;44020;50.890;15.796;2023-05-10T13:13:29;97333.55;;;21.04;37.78
58223;BME280;44020;50.890;15.796;2023-05-10T13:15:57;97326.30;;;20.97;37.80
58223;BME280;44020;50.890;15.796;2023-05-10T13:18:24;97331.69;;;20.88;37.91
58223;BME280;44020;50.890;15.796;2023-05-10T13:20:53;97331.30;;;20.73;37.32
58223;BME280;44020;50.890;15.796;2023-05-10T13:23:21;97325.08;;;20.78;37.94
58223;BME280;44020;50.890;15.796;2023-05-10T13:25:49;97323.89;;;20.93;38.01